Time;durP1;ratioP1;P1;durP2;ratioP2;P2;SDS_P1;SDS_P2;PMS_P1;PMS_P2;Temp;Humidity;BMP_temperature;BMP_pressure;BME280_temperature;BME280_humidity;BME280_pressure;Samples;Min_cycle;Max_cycle;Signal;HPM_P1;HPM_P2
2023/08/20 00:01:58;;;;;;;5.88;1.52;;;17.60;99.90;;;;;;5078788;28;20461;-73
2023/08/20 00:04:26;;;;;;;2.80;1.20;;;17.70;99.90;;;;;;5078550;28;20052;-72
2023/08/20 00:06:52;;;;;;;2.15;1.02;;;17.70;99.90;;;;;;5091245;28;20040;-72
2023/08/20 00:09:18;;;;;;;2.63;0.90;;;17.70;99.90;;;;;;5077007;28;20082;-72
2023/08/20 00:11:43;;;;;;;3.22;1.08;;;17.60;99.90;;;;;;5080260;28;20068;-72
2023/08/20 00:14:16;;;;;;;3.15;1.02;;;17.60;99.90;;;;;;5055334;28;20032;-72
2023/08/20 00:16:43;;;;;;;2.92;1.10;;;17.50;99.90;;;;;;5094673;28;20044;-72
2023/08/20 00:19:09;;;;;;;2.63;1.20;;;17.50;99.90;;;;;;5077312;28;20101;-72
2023/08/20 00:21:35;;;;;;;4.28;1.30;;;17.40;99.90;;;;;;5073389;28;20032;-72
2023/08/20 00:24:01;;;;;;;4.93;1.33;;;17.40;99.90;;;;;;5078177;28;20045;-72
2023/08/20 00:26:27;;;;;;;3.20;1.10;;;17.30;99.90;;;;;;5113249;27;20149;-72
2023/08/20 00:28:53;;;;;;;2.78;1.27;;;17.30;99.90;;;;;;5077058;28;20065;-72
2023/08/20 00:31:19;;;;;;;4.20;1.27;;;17.30;99.90;;;;;;5080837;28;20043;-72
2023/08/20 00:33:44;;;;;;;3.30;1.20;;;17.40;99.90;;;;;;5071859;28;20421;-72
2023/08/20 00:36:10;;;;;;;2.17;1.40;;;17.40;99.90;;;;;;5110496;27;20047;-72
2023/08/20 00:38:35;;;;;;;5.88;1.35;;;17.40;99.90;;;;;;5079586;28;20032;-72
2023/08/20 00:41:01;;;;;;;5.40;1.30;;;17.40;99.90;;;;;;5081135;28;20051;-72
2023/08/20 00:43:27;;;;;;;4.88;1.42;;;17.30;99.90;;;;;;5078168;28;20066;-72
2023/08/20 00:45:53;;;;;;;6.70;1.60;;;17.30;99.90;;;;;;5061014;28;20636;-72
2023/08/20 00:48:18;;;;;;;2.50;1.40;;;17.20;99.90;;;;;;5078350;28;20131;-72
2023/08/20 00:50:44;;;;;;;1.90;1.08;;;17.20;99.90;;;;;;5068740;28;20040;-72
2023/08/20 00:53:12;;;;;;;2.35;0.93;;;17.20;99.90;;;;;;5071432;28;20052;-72
2023/08/20 00:55:38;;;;;;;2.83;1.00;;;17.10;99.90;;;;;;5076483;28;20039;-72
2023/08/20 00:58:04;;;;;;;4.88;1.00;;;17.10;99.90;;;;;;5076412;28;20126;-72
2023/08/20 01:00:29;;;;;;;4.25;0.90;;;17.10;99.90;;;;;;5081248;28;20040;-72
2023/08/20 01:02:55;;;;;;;2.60;0.90;;;17.10;99.90;;;;;;5075411;28;20051;-72
2023/08/20 01:05:21;;;;;;;2.60;1.02;;;17.10;99.90;;;;;;5080357;28;20039;-72
2023/08/20 01:08:12;;;;;;;3.80;1.52;;;17.00;99.90;;;;;;5076704;28;20130;-72
2023/08/20 01:10:53;;;;;;;3.47;1.17;;;17.00;99.90;;;;;;5082208;28;20435;-71
2023/08/20 01:13:19;;;;;;;3.45;0.93;;;17.00;99.90;;;;;;5076637;28;20051;-72
2023/08/20 01:15:44;;;;;;;2.03;1.05;;;17.00;99.90;;;;;;5075111;28;20036;-72
2023/08/20 01:18:10;;;;;;;3.30;1.17;;;17.00;99.90;;;;;;5074933;28;20041;-72
2023/08/20 01:20:44;;;;;;;3.17;1.20;;;17.00;99.90;;;;;;5071945;28;20040;-72
2023/08/20 01:23:28;;;;;;;2.30;1.10;;;17.00;99.90;;;;;;5071292;28;20040;-72
2023/08/20 01:26:40;;;;;;;3.08;1.13;;;16.90;99.90;;;;;;5107411;27;20056;-72
2023/08/20 01:29:07;;;;;;;4.55;1.50;;;16.90;99.90;;;;;;5054449;28;20079;-72
2023/08/20 01:31:33;;;;;;;3.70;1.20;;;16.90;99.90;;;;;;5079794;28;20033;-72
2023/08/20 01:34:00;;;;;;;3.25;1.20;;;16.80;99.90;;;;;;5075149;28;20074;-72
2023/08/20 01:36:26;;;;;;;3.42;1.40;;;16.90;99.90;;;;;;5077467;28;20141;-72
2023/08/20 01:38:52;;;;;;;5.13;1.35;;;16.80;99.90;;;;;;5068400;28;20041;-72
2023/08/20 01:41:17;;;;;;;3.38;1.10;;;16.80;99.90;;;;;;5075566;28;20059;-71
2023/08/20 01:43:43;;;;;;;3.28;1.00;;;16.80;99.90;;;;;;5076816;28;20055;-72
2023/08/20 01:46:09;;;;;;;5.28;1.50;;;16.80;99.90;;;;;;5074978;28;20375;-72
2023/08/20 01:48:35;;;;;;;3.75;1.30;;;16.80;99.90;;;;;;5075653;28;20399;-72
2023/08/20 01:51:00;;;;;;;3.15;1.35;;;16.80;99.90;;;;;;5076727;28;20063;-72
2023/08/20 01:53:26;;;;;;;3.05;1.10;;;16.80;99.90;;;;;;5078526;28;20035;-72
2023/08/20 01:55:51;;;;;;;3.47;1.25;;;16.70;99.90;;;;;;5090446;28;20043;-72
2023/08/20 01:58:17;;;;;;;5.63;1.58;;;16.70;99.90;;;;;;5075263;28;20152;-72
2023/08/20 02:00:44;;;;;;;2.65;1.40;;;16.70;99.90;;;;;;5072234;28;20376;-72
2023/08/20 02:03:10;;;;;;;3.10;1.25;;;16.70;99.90;;;;;;5075607;28;20040;-72
2023/08/20 02:05:35;;;;;;;3.42;1.55;;;16.70;99.90;;;;;;5071781;28;20610;-72
2023/08/20 02:08:02;;;;;;;3.92;1.77;;;16.70;99.90;;;;;;5072137;28;20519;-72
2023/08/20 02:10:27;;;;;;;5.65;1.52;;;16.70;99.90;;;;;;5075426;28;20055;-72
2023/08/20 02:12:53;;;;;;;4.47;1.70;;;16.70;99.90;;;;;;5050901;28;20257;-72
2023/08/20 02:15:18;;;;;;;2.97;1.60;;;16.70;99.90;;;;;;5084830;28;20037;-72
2023/08/20 02:17:44;;;;;;;3.30;1.58;;;16.60;99.90;;;;;;5082961;28;20044;-72
2023/08/20 02:20:10;;;;;;;5.72;1.77;;;16.60;99.90;;;;;;5111413;27;20028;-72
2023/08/20 02:22:36;;;;;;;3.22;1.25;;;16.60;99.90;;;;;;5057513;28;20029;-72
2023/08/20 02:25:01;;;;;;;5.55;1.90;;;16.60;99.90;;;;;;5072712;28;20147;-72
2023/08/20 02:27:27;;;;;;;3.25;1.65;;;16.60;99.90;;;;;;5079026;28;20139;-72
2023/08/20 02:29:53;;;;;;;3.83;1.50;;;16.60;99.90;;;;;;5071998;28;20037;-72
2023/08/20 02:32:18;;;;;;;3.97;1.90;;;16.60;99.90;;;;;;5079131;28;20040;-72
2023/08/20 02:34:44;;;;;;;5.10;1.88;;;16.50;99.90;;;;;;5077765;28;20475;-72
2023/08/20 02:37:10;;;;;;;4.03;1.83;;;16.50;99.90;;;;;;5082155;28;20036;-72
2023/08/20 02:39:35;;;;;;;2.83;1.63;;;16.50;99.90;;;;;;5082565;28;20032;-72
2023/08/20 02:42:01;;;;;;;5.93;1.77;;;16.50;99.90;;;;;;5059977;28;20608;-72
2023/08/20 02:44:26;;;;;;;5.38;2.10;;;16.50;99.90;;;;;;5061797;28;20044;-72
2023/08/20 02:46:52;;;;;;;6.75;2.55;;;16.50;99.90;;;;;;5082709;28;20402;-72
2023/08/20 02:49:17;;;;;;;3.85;2.22;;;16.50;99.90;;;;;;5080403;28;20040;-72
2023/08/20 02:51:43;;;;;;;5.43;2.75;;;16.50;99.90;;;;;;5084094;28;20100;-72
2023/08/20 02:54:09;;;;;;;6.82;2.53;;;16.50;99.90;;;;;;5079646;28;20047;-72
2023/08/20 02:56:34;;;;;;;5.20;2.83;;;16.40;99.90;;;;;;5083099;28;20028;-72
2023/08/20 02:59:00;;;;;;;6.53;2.67;;;16.50;99.90;;;;;;5080960;28;20048;-72
2023/08/20 03:01:26;;;;;;;7.35;2.45;;;16.50;99.90;;;;;;5081533;28;20024;-71
2023/08/20 03:03:52;;;;;;;4.47;2.10;;;16.50;99.90;;;;;;5079026;28;20044;-72
2023/08/20 03:06:18;;;;;;;8.38;2.63;;;16.50;99.90;;;;;;5080349;28;20044;-72
2023/08/20 03:08:43;;;;;;;4.85;2.25;;;16.50;99.90;;;;;;5081934;28;20044;-72
2023/08/20 03:11:09;;;;;;;8.30;2.25;;;16.50;99.90;;;;;;5076466;28;20028;-72
2023/08/20 03:13:35;;;;;;;7.45;2.08;;;16.50;99.90;;;;;;5075473;28;20554;-72
2023/08/20 03:16:01;;;;;;;4.70;2.28;;;16.40;99.90;;;;;;5062463;28;20036;-72
2023/08/20 03:18:26;;;;;;;4.60;2.08;;;16.50;99.90;;;;;;5076877;28;20266;-72
2023/08/20 03:20:55;;;;;;;4.93;2.10;;;16.50;99.90;;;;;;5076519;28;20401;-72
2023/08/20 03:23:21;;;;;;;4.65;2.08;;;16.50;99.90;;;;;;5078910;28;20040;-72
2023/08/20 03:25:47;;;;;;;4.75;2.20;;;16.50;99.90;;;;;;5054693;28;20506;-72
2023/08/20 03:28:12;;;;;;;6.30;2.00;;;16.50;99.90;;;;;;5077253;28;20060;-72
2023/08/20 03:30:38;;;;;;;7.20;2.67;;;16.40;99.90;;;;;;5077516;28;20051;-72
2023/08/20 03:33:04;;;;;;;4.55;2.67;;;16.40;99.90;;;;;;5076123;28;20068;-72
2023/08/20 03:35:29;;;;;;;5.45;2.63;;;16.40;99.90;;;;;;5079615;28;20032;-72
2023/08/20 03:37:55;;;;;;;6.82;2.80;;;16.40;99.90;;;;;;5074050;28;20044;-72
2023/08/20 03:40:20;;;;;;;6.78;3.15;;;16.40;99.90;;;;;;5075500;28;20032;-72
2023/08/20 03:42:46;;;;;;;6.15;2.70;;;16.40;99.90;;;;;;5076852;28;20036;-72
2023/08/20 03:45:11;;;;;;;8.35;2.58;;;16.40;99.90;;;;;;5080329;28;20083;-72
2023/08/20 03:47:37;;;;;;;5.97;2.95;;;16.40;99.90;;;;;;5075629;28;20044;-72
2023/08/20 03:50:03;;;;;;;7.25;2.50;;;16.40;99.90;;;;;;5074610;28;20036;-72
2023/08/20 03:52:29;;;;;;;6.32;2.83;;;16.40;99.90;;;;;;5074607;28;20051;-72
2023/08/20 03:54:55;;;;;;;5.65;2.95;;;16.40;99.90;;;;;;5077754;28;20040;-72
2023/08/20 03:57:20;;;;;;;8.48;2.85;;;16.40;99.90;;;;;;5073495;28;20565;-72
2023/08/20 03:59:47;;;;;;;5.35;2.70;;;16.40;99.90;;;;;;5071664;28;20041;-72
2023/08/20 04:02:13;;;;;;;6.93;2.70;;;16.40;99.90;;;;;;5071349;28;20080;-72
2023/08/20 04:04:38;;;;;;;4.97;2.22;;;16.40;99.90;;;;;;5076898;28;20035;-72
2023/08/20 04:07:04;;;;;;;5.43;2.80;;;16.30;99.90;;;;;;5079629;28;20043;-72
2023/08/20 04:09:29;;;;;;;6.38;2.58;;;16.30;99.90;;;;;;5076549;28;20040;-72
2023/08/20 04:11:55;;;;;;;6.68;2.67;;;16.30;99.90;;;;;;5052404;28;20036;-72
2023/08/20 04:14:21;;;;;;;4.95;2.47;;;16.30;99.90;;;;;;5067340;28;20074;-72
2023/08/20 04:16:46;;;;;;;7.38;2.80;;;16.30;99.90;;;;;;5073043;28;20029;-72
2023/08/20 04:19:12;;;;;;;7.45;3.05;;;16.30;99.90;;;;;;5113827;27;20569;-72
2023/08/20 04:21:37;;;;;;;6.47;2.70;;;16.30;99.90;;;;;;5076875;28;20039;-72
2023/08/20 04:24:03;;;;;;;5.15;2.97;;;16.30;99.90;;;;;;5082747;28;20036;-72
2023/08/20 04:26:29;;;;;;;7.43;2.83;;;16.30;99.90;;;;;;5079277;28;20502;-72
2023/08/20 04:28:54;;;;;;;7.45;2.95;;;16.30;99.90;;;;;;5078934;28;20498;-72
2023/08/20 04:31:20;;;;;;;5.20;3.30;;;16.30;99.90;;;;;;5074511;28;20036;-72
2023/08/20 04:33:46;;;;;;;7.45;3.30;;;16.30;99.90;;;;;;5114361;27;20036;-72
2023/08/20 04:36:11;;;;;;;6.13;3.20;;;16.40;99.90;;;;;;5080536;28;20036;-72
2023/08/20 04:38:37;;;;;;;5.60;3.38;;;16.30;99.90;;;;;;5082613;28;20055;-72
2023/08/20 04:41:03;;;;;;;6.20;2.90;;;16.30;99.90;;;;;;5073095;28;20059;-72
2023/08/20 04:43:28;;;;;;;6.00;3.33;;;16.30;99.90;;;;;;5075087;28;20055;-72
2023/08/20 04:45:54;;;;;;;7.53;3.30;;;16.40;99.90;;;;;;5079337;28;20501;-72
2023/08/20 04:48:20;;;;;;;5.60;3.28;;;16.40;99.90;;;;;;5072564;28;20131;-72
2023/08/20 04:50:46;;;;;;;6.38;3.15;;;16.40;99.90;;;;;;5069536;28;20052;-72
2023/08/20 04:53:12;;;;;;;6.28;3.45;;;16.40;99.90;;;;;;5075397;28;20568;-72
2023/08/20 04:55:38;;;;;;;7.45;3.58;;;16.40;99.90;;;;;;5072476;28;20068;-72
2023/08/20 04:58:03;;;;;;;6.30;3.58;;;16.40;99.90;;;;;;5080167;28;20035;-72
2023/08/20 05:00:29;;;;;;;6.60;3.40;;;16.40;99.90;;;;;;5073590;28;20218;-72
2023/08/20 05:02:55;;;;;;;7.10;3.53;;;16.30;99.90;;;;;;5060988;28;20071;-72
2023/08/20 05:05:21;;;;;;;7.32;3.88;;;16.40;99.90;;;;;;5081037;28;20047;-72
2023/08/20 05:07:47;;;;;;;9.57;4.18;;;16.40;99.90;;;;;;5053434;28;20037;-71
2023/08/20 05:10:12;;;;;;;8.73;3.53;;;16.50;99.90;;;;;;5071105;28;20093;-72
2023/08/20 05:12:38;;;;;;;7.25;4.35;;;16.40;99.90;;;;;;5075253;28;20093;-72
2023/08/20 05:15:04;;;;;;;9.57;4.07;;;16.50;99.90;;;;;;5074885;28;20572;-72
2023/08/20 05:17:30;;;;;;;8.88;4.00;;;16.40;99.90;;;;;;5077421;28;20047;-72
2023/08/20 05:19:55;;;;;;;8.10;3.95;;;16.50;99.90;;;;;;5078122;28;20031;-72
2023/08/20 05:22:21;;;;;;;8.45;3.90;;;16.50;99.90;;;;;;5072196;28;20032;-72
2023/08/20 05:24:47;;;;;;;8.45;3.67;;;16.50;99.90;;;;;;5073062;28;20036;-72
2023/08/20 05:27:14;;;;;;;7.13;3.80;;;16.50;99.90;;;;;;5076672;28;20060;-72
2023/08/20 05:29:40;;;;;;;8.27;3.88;;;16.50;99.90;;;;;;5070098;28;20048;-72
2023/08/20 05:32:09;;;;;;;8.88;3.83;;;16.50;99.90;;;;;;5061588;28;20052;-72
2023/08/20 05:34:35;;;;;;;6.72;3.78;;;16.50;99.90;;;;;;5077710;28;20517;-72
2023/08/20 05:37:01;;;;;;;7.25;3.67;;;16.50;99.90;;;;;;5079476;28;20039;-72
2023/08/20 05:39:27;;;;;;;10.60;4.18;;;16.50;99.90;;;;;;5072216;28;20039;-72
2023/08/20 05:41:55;;;;;;;8.55;3.67;;;16.50;99.90;;;;;;5084825;28;20095;-72
2023/08/20 05:44:21;;;;;;;7.95;3.15;;;16.50;99.90;;;;;;5089975;28;20157;-72
2023/08/20 05:46:47;;;;;;;8.10;3.70;;;16.50;99.90;;;;;;5079228;28;20123;-72
2023/08/20 05:49:15;;;;;;;9.15;4.25;;;16.60;99.90;;;;;;5078400;28;20124;-72
2023/08/20 05:51:42;;;;;;;7.93;3.67;;;16.60;99.90;;;;;;5079565;28;20036;-72
2023/08/20 05:54:07;;;;;;;7.43;3.80;;;16.60;99.90;;;;;;5083162;28;20071;-72
2023/08/20 05:56:33;;;;;;;6.72;3.67;;;16.60;99.90;;;;;;5080100;28;20055;-72
2023/08/20 05:58:58;;;;;;;6.53;3.50;;;16.60;99.90;;;;;;5078432;28;20059;-72
2023/08/20 06:01:24;;;;;;;7.90;3.50;;;16.60;99.90;;;;;;5082861;28;20052;-72
2023/08/20 06:03:49;;;;;;;10.23;3.60;;;16.60;99.90;;;;;;5109362;27;20398;-72
2023/08/20 06:06:15;;;;;;;11.95;3.92;;;16.60;99.90;;;;;;5074982;28;20051;-72
2023/08/20 06:08:41;;;;;;;9.45;3.70;;;16.60;99.90;;;;;;5083262;28;20036;-72
2023/08/20 06:11:06;;;;;;;7.03;3.00;;;16.60;99.90;;;;;;5059200;28;20398;-72
2023/08/20 06:13:32;;;;;;;8.80;3.95;;;16.70;99.90;;;;;;5076875;28;20056;-72
2023/08/20 06:15:57;;;;;;;8.60;3.60;;;16.70;99.90;;;;;;5084286;28;20040;-72
2023/08/20 06:18:23;;;;;;;7.50;2.90;;;16.70;99.90;;;;;;5081145;28;20040;-72
2023/08/20 06:20:49;;;;;;;5.13;2.80;;;16.70;99.90;;;;;;5075972;28;20160;-72
2023/08/20 06:23:14;;;;;;;7.68;3.50;;;16.70;99.90;;;;;;5076345;28;20039;-72
2023/08/20 06:25:40;;;;;;;7.85;3.03;;;16.80;99.90;;;;;;5082071;28;20051;-72
2023/08/20 06:28:05;;;;;;;7.00;3.53;;;16.80;99.90;;;;;;5073937;28;20076;-72
2023/08/20 06:30:31;;;;;;;6.97;3.42;;;16.80;99.90;;;;;;5058122;28;20081;-72
2023/08/20 06:32:57;;;;;;;9.02;3.33;;;16.90;99.90;;;;;;5075223;28;20750;-72
2023/08/20 06:35:22;;;;;;;9.10;3.15;;;16.90;99.90;;;;;;5075067;28;20044;-72
2023/08/20 06:37:48;;;;;;;5.80;2.65;;;16.90;99.90;;;;;;5080120;28;20035;-72
2023/08/20 06:40:13;;;;;;;8.07;2.90;;;17.00;99.90;;;;;;5057588;28;20256;-72
2023/08/20 06:42:39;;;;;;;6.05;2.70;;;17.00;99.90;;;;;;5080935;28;20073;-72
2023/08/20 06:45:05;;;;;;;7.03;2.45;;;17.10;99.90;;;;;;5080534;28;20035;-72
2023/08/20 06:47:31;;;;;;;5.80;2.70;;;17.10;99.90;;;;;;5080681;28;20128;-72
2023/08/20 06:49:56;;;;;;;6.15;2.83;;;17.20;99.90;;;;;;5075873;28;20117;-72
2023/08/20 06:52:22;;;;;;;6.65;2.70;;;17.30;99.90;;;;;;5099010;28;20120;-72
2023/08/20 06:54:48;;;;;;;5.38;2.92;;;17.30;99.90;;;;;;5081877;28;20143;-72
2023/08/20 06:57:13;;;;;;;6.90;2.65;;;17.40;99.90;;;;;;5078154;28;20032;-72
2023/08/20 06:59:39;;;;;;;4.72;2.65;;;17.50;99.90;;;;;;5080209;28;20093;-72
2023/08/20 07:02:04;;;;;;;7.65;3.20;;;17.60;99.90;;;;;;5073486;28;20042;-72
2023/08/20 07:04:30;;;;;;;6.22;2.63;;;17.60;99.90;;;;;;5074874;28;20082;-72
2023/08/20 07:06:55;;;;;;;5.63;2.40;;;17.70;99.90;;;;;;5105259;27;20454;-72
2023/08/20 07:09:21;;;;;;;6.90;2.42;;;17.80;99.90;;;;;;5076899;28;20040;-74
2023/08/20 07:11:47;;;;;;;6.80;2.88;;;17.90;99.90;;;;;;5080050;28;20040;-73
2023/08/20 07:14:12;;;;;;;7.05;2.60;;;17.90;99.90;;;;;;5074949;28;20036;-74
2023/08/20 07:16:38;;;;;;;7.00;2.40;;;18.00;99.90;;;;;;5074107;28;20040;-73
2023/08/20 07:19:04;;;;;;;4.85;2.03;;;18.00;99.90;;;;;;5064965;28;20127;-73
2023/08/20 07:21:29;;;;;;;5.15;2.25;;;18.10;99.90;;;;;;5070881;28;20064;-73
2023/08/20 07:23:55;;;;;;;8.65;2.33;;;18.20;99.90;;;;;;5075764;28;20094;-73
2023/08/20 07:26:21;;;;;;;5.15;2.22;;;18.20;99.90;;;;;;5076236;28;20031;-73
2023/08/20 07:28:56;;;;;;;8.35;2.08;;;18.20;99.90;;;;;;5076586;28;20066;-74
2023/08/20 07:31:22;;;;;;;6.87;2.00;;;18.30;99.90;;;;;;5073739;28;20482;-73
2023/08/20 07:33:49;;;;;;;6.15;1.80;;;18.30;99.90;;;;;;5081320;28;20341;-74
2023/08/20 07:36:15;;;;;;;6.80;1.70;;;18.40;99.90;;;;;;5086463;28;20512;-73
2023/08/20 07:38:42;;;;;;;5.00;1.80;;;18.50;99.90;;;;;;5076242;28;20032;-74
2023/08/20 07:41:08;;;;;;;9.27;2.00;;;18.50;99.90;;;;;;5079607;28;20040;-73
2023/08/20 07:43:34;;;;;;;4.18;1.58;;;18.50;99.90;;;;;;5074884;28;20551;-74
2023/08/20 07:45:59;;;;;;;5.13;2.05;;;18.60;99.90;;;;;;5107734;27;20035;-73
2023/08/20 07:48:25;;;;;;;6.40;2.38;;;18.60;99.90;;;;;;5080125;28;20203;-73
2023/08/20 07:50:50;;;;;;;4.30;1.40;;;18.60;99.90;;;;;;5071773;28;20043;-74
2023/08/20 07:53:16;;;;;;;6.72;1.45;;;18.70;99.90;;;;;;5074300;28;20040;-73
2023/08/20 07:55:42;;;;;;;6.97;1.42;;;18.80;99.90;;;;;;5077858;28;20056;-74
2023/08/20 07:58:07;;;;;;;7.32;1.83;;;18.80;99.90;;;;;;5075954;28;20024;-73
2023/08/20 08:00:33;;;;;;;5.35;1.27;;;18.90;99.90;;;;;;5069858;28;20062;-73
2023/08/20 08:02:58;;;;;;;4.60;1.63;;;18.90;99.90;;;;;;5100255;27;20044;-73
2023/08/20 08:05:24;;;;;;;4.53;1.38;;;18.90;99.90;;;;;;5069646;28;20044;-74
2023/08/20 08:07:50;;;;;;;3.50;1.30;;;19.00;99.90;;;;;;5073933;28;20040;-74
2023/08/20 08:10:15;;;;;;;5.28;1.50;;;19.00;99.90;;;;;;5071133;28;20052;-74
2023/08/20 08:12:41;;;;;;;3.78;1.15;;;19.10;99.90;;;;;;5068013;28;20235;-75
2023/08/20 08:15:06;;;;;;;3.53;1.50;;;19.10;99.90;;;;;;5071705;28;20047;-74
2023/08/20 08:17:32;;;;;;;3.97;1.33;;;19.20;99.90;;;;;;5068000;28;20039;-74
2023/08/20 08:19:58;;;;;;;4.07;1.08;;;19.30;99.90;;;;;;5065530;28;20028;-74
2023/08/20 08:22:24;;;;;;;3.22;1.20;;;19.30;99.90;;;;;;5070808;28;20405;-74
2023/08/20 08:24:49;;;;;;;5.40;1.27;;;19.30;99.90;;;;;;5073674;28;20206;-74
2023/08/20 08:27:15;;;;;;;5.25;1.15;;;19.40;99.90;;;;;;5068276;28;20051;-74
2023/08/20 08:29:41;;;;;;;4.32;1.30;;;19.40;99.90;;;;;;5069015;28;20075;-74
2023/08/20 08:32:06;;;;;;;3.10;1.10;;;19.50;99.90;;;;;;5072020;28;20634;-74
2023/08/20 08:34:32;;;;;;;3.92;1.25;;;19.50;99.90;;;;;;5066359;28;20048;-74
2023/08/20 08:36:57;;;;;;;5.57;1.00;;;19.50;99.90;;;;;;5071045;28;20040;-75
2023/08/20 08:39:23;;;;;;;4.75;1.13;;;19.50;99.90;;;;;;5088925;28;20074;-74
2023/08/20 08:41:57;;;;;;;2.17;1.10;;;19.60;99.90;;;;;;5063817;28;20109;-75
2023/08/20 08:44:23;;;;;;;3.67;0.70;;;19.60;99.90;;;;;;5069718;28;20039;-75
2023/08/20 08:46:50;;;;;;;4.53;0.75;;;19.70;99.90;;;;;;5081379;28;20032;-76
2023/08/20 08:49:16;;;;;;;5.82;1.00;;;19.70;99.90;;;;;;5067370;28;20051;-76
2023/08/20 08:51:44;;;;;;;6.07;1.05;;;19.80;99.90;;;;;;5070767;28;20051;-75
2023/08/20 08:54:10;;;;;;;3.17;1.08;;;19.80;99.90;;;;;;5066705;28;20032;-75
2023/08/20 08:56:36;;;;;;;2.40;0.60;;;19.80;99.90;;;;;;5046529;28;20654;-75
2023/08/20 08:59:03;;;;;;;2.72;0.70;;;19.90;99.90;;;;;;5050010;28;20044;-74
2023/08/20 09:01:28;;;;;;;2.53;0.85;;;19.90;99.90;;;;;;5068580;28;20611;-74
2023/08/20 09:03:54;;;;;;;2.70;0.80;;;19.90;99.90;;;;;;5068331;28;20053;-74
2023/08/20 09:06:20;;;;;;;3.50;0.90;;;19.90;99.90;;;;;;5069820;28;20049;-74
2023/08/20 09:08:45;;;;;;;2.50;0.70;;;20.00;99.90;;;;;;5068958;28;20071;-74
2023/08/20 09:11:11;;;;;;;2.65;0.73;;;20.00;99.90;;;;;;5071307;28;20050;-74
2023/08/20 09:13:38;;;;;;;1.83;0.50;;;20.10;99.90;;;;;;5063235;28;20089;-74
2023/08/20 09:16:09;;;;;;;6.30;0.90;;;20.10;99.90;;;;;;5068506;28;20059;-75
2023/08/20 09:18:39;;;;;;;3.30;0.98;;;20.10;99.90;;;;;;5052237;28;20040;-73
2023/08/20 09:21:08;;;;;;;2.03;0.63;;;20.20;99.90;;;;;;5063043;28;20134;-73
2023/08/20 09:23:33;;;;;;;1.17;0.45;;;20.30;99.90;;;;;;5062889;28;20131;-73
2023/08/20 09:26:02;;;;;;;3.47;0.80;;;20.30;99.90;;;;;;5071685;28;20754;-74
2023/08/20 09:28:27;;;;;;;3.50;0.75;;;20.40;99.90;;;;;;5069206;28;20105;-73
2023/08/20 09:31:01;;;;;;;3.50;0.60;;;20.40;99.90;;;;;;5075070;28;20048;-76
2023/08/20 09:33:27;;;;;;;3.55;0.70;;;20.40;99.90;;;;;;5069401;28;20036;-74
2023/08/20 09:35:56;;;;;;;2.15;0.50;;;20.50;99.90;;;;;;5054053;28;20390;-74
2023/08/20 09:38:23;;;;;;;6.10;0.80;;;20.50;99.90;;;;;;5082597;28;20036;-74
2023/08/20 09:40:52;;;;;;;1.52;0.57;;;20.50;99.90;;;;;;5069635;28;20125;-74
2023/08/20 09:43:18;;;;;;;1.92;0.65;;;20.60;99.90;;;;;;5072080;28;20510;-73
2023/08/20 09:45:47;;;;;;;2.92;0.50;;;20.60;99.90;;;;;;5070302;28;20043;-73
2023/08/20 09:48:18;;;;;;;2.55;0.70;;;20.70;99.90;;;;;;5070839;28;20127;-74
2023/08/20 09:50:45;;;;;;;2.97;0.50;;;20.70;99.90;;;;;;5071251;28;22761;-74
2023/08/20 09:53:19;;;;;;;2.50;0.68;;;20.70;99.90;;;;;;5068294;28;20116;-74
2023/08/20 09:55:49;;;;;;;1.58;0.50;;;20.70;99.90;;;;;;5073010;28;20036;-74
2023/08/20 09:58:16;;;;;;;1.60;0.70;;;20.70;99.90;;;;;;5066629;28;20040;-74
2023/08/20 10:00:42;;;;;;;1.90;0.50;;;20.70;99.90;;;;;;5101602;27;20474;-74
2023/08/20 10:03:07;;;;;;;2.08;0.45;;;20.80;99.90;;;;;;5076759;28;20047;-73
2023/08/20 10:05:33;;;;;;;2.45;0.77;;;20.80;99.90;;;;;;5070660;28;20066;-73
2023/08/20 10:08:00;;;;;;;1.65;0.63;;;20.90;99.90;;;;;;5099919;27;20030;-73
2023/08/20 10:10:26;;;;;;;2.67;0.70;;;20.90;99.90;;;;;;5070163;28;20533;-73
2023/08/20 10:12:52;;;;;;;5.10;0.80;;;20.90;99.90;;;;;;5073684;28;20048;-74
2023/08/20 10:15:17;;;;;;;3.17;0.80;;;20.90;99.90;;;;;;5074016;28;20820;-74
2023/08/20 10:17:45;;;;;;;2.88;0.80;;;20.90;99.90;;;;;;5067267;28;20528;-73
2023/08/20 10:20:14;;;;;;;2.83;0.88;;;21.00;99.90;;;;;;5057982;28;20063;-73
2023/08/20 10:22:41;;;;;;;1.73;0.70;;;21.10;99.90;;;;;;5073709;28;20667;-73
2023/08/20 10:25:26;;;;;;;2.33;0.77;;;21.10;99.90;;;;;;5101252;27;20033;-73
2023/08/20 10:27:53;;;;;;;2.47;0.47;;;21.10;99.90;;;;;;5075876;28;20627;-73
2023/08/20 10:30:25;;;;;;;1.88;0.68;;;21.10;99.90;;;;;;5074935;28;20718;-73
2023/08/20 10:32:57;;;;;;;1.60;0.52;;;21.10;99.90;;;;;;5072688;28;20047;-74
2023/08/20 10:35:28;;;;;;;2.40;0.50;;;21.20;99.90;;;;;;5100603;27;20494;-73
2023/08/20 10:38:00;;;;;;;3.15;0.70;;;21.20;99.90;;;;;;5073765;28;20489;-73
2023/08/20 10:40:57;;;;;;;2.72;0.50;;;21.20;99.90;;;;;;5073483;28;20886;-73
2023/08/20 10:43:30;;;;;;;1.48;0.40;;;21.20;99.90;;;;;;5076607;28;20040;-73
2023/08/20 10:46:08;;;;;;;1.85;0.57;;;21.20;99.90;;;;;;5073358;28;20044;-73
2023/08/20 10:48:36;;;;;;;3.20;0.60;;;21.20;99.90;;;;;;5072543;28;20074;-73
2023/08/20 10:51:16;;;;;;;2.08;0.63;;;21.10;99.90;;;;;;5069252;28;20043;-74
2023/08/20 10:53:48;;;;;;;2.97;0.40;;;21.20;99.90;;;;;;5076327;28;20392;-74
2023/08/20 10:56:16;;;;;;;1.63;0.38;;;21.30;99.90;;;;;;5071981;28;20043;-73
2023/08/20 10:58:44;;;;;;;1.33;0.40;;;21.20;99.90;;;;;;5075618;28;20043;-73
2023/08/20 11:01:22;;;;;;;1.38;0.50;;;21.20;99.90;;;;;;5073867;28;20067;-73
2023/08/20 11:03:50;;;;;;;3.08;0.70;;;21.30;99.90;;;;;;5071719;28;20068;-73
2023/08/20 11:06:17;;;;;;;5.35;0.80;;;21.40;99.90;;;;;;5072352;28;20044;-73
2023/08/20 11:08:43;;;;;;;2.33;0.68;;;21.40;99.90;;;;;;5073938;28;20501;-73
2023/08/20 11:11:11;;;;;;;4.38;0.52;;;21.40;99.90;;;;;;5073632;28;20044;-73
2023/08/20 11:13:37;;;;;;;2.63;0.60;;;21.50;99.90;;;;;;5074464;28;20328;-73
2023/08/20 11:16:03;;;;;;;3.33;0.40;;;21.50;99.90;;;;;;5073247;28;20093;-73
2023/08/20 11:18:31;;;;;;;1.88;0.40;;;21.60;99.90;;;;;;5106865;27;20040;-73
2023/08/20 11:20:57;;;;;;;1.45;0.30;;;21.60;99.90;;;;;;5106776;27;20040;-73
2023/08/20 11:23:23;;;;;;;2.60;0.38;;;21.60;99.90;;;;;;5071423;28;20033;-73
2023/08/20 11:25:48;;;;;;;1.20;0.40;;;21.70;99.90;;;;;;5106234;27;20079;-73
2023/08/20 11:28:14;;;;;;;2.25;0.50;;;21.70;99.90;;;;;;5074375;28;20051;-73
2023/08/20 11:30:40;;;;;;;1.15;0.45;;;21.70;99.90;;;;;;5076580;28;20521;-73
2023/08/20 11:33:06;;;;;;;3.45;0.40;;;21.80;99.90;;;;;;5077818;28;20432;-73
2023/08/20 11:35:32;;;;;;;2.20;0.47;;;21.80;99.90;;;;;;5077113;28;20039;-73
2023/08/20 11:37:58;;;;;;;2.22;0.43;;;21.80;99.90;;;;;;5076325;28;20764;-73
2023/08/20 11:40:24;;;;;;;1.67;0.50;;;21.90;99.90;;;;;;5076960;28;21717;-73
2023/08/20 11:42:50;;;;;;;2.40;0.60;;;21.80;99.90;;;;;;5075063;28;20097;-73
2023/08/20 11:45:16;;;;;;;1.88;0.40;;;21.80;99.90;;;;;;5070425;28;20052;-72
2023/08/20 11:47:42;;;;;;;1.02;0.40;;;21.90;99.90;;;;;;5073883;28;20042;-71
2023/08/20 11:50:09;;;;;;;2.58;0.45;;;21.90;99.90;;;;;;5075220;28;20044;-72
2023/08/20 11:52:41;;;;;;;1.48;0.43;;;22.00;99.90;;;;;;5102396;27;20140;-72
2023/08/20 11:55:09;;;;;;;1.15;0.30;;;22.00;99.90;;;;;;5074770;28;20456;-73
2023/08/20 11:57:35;;;;;;;1.60;0.45;;;22.10;99.90;;;;;;5070095;28;20048;-73
2023/08/20 12:00:04;;;;;;;3.58;0.60;;;22.10;99.90;;;;;;5070528;28;20165;-72
2023/08/20 12:02:30;;;;;;;1.60;0.30;;;22.20;99.90;;;;;;5076469;28;20042;-73
2023/08/20 12:04:57;;;;;;;2.20;0.40;;;22.20;99.90;;;;;;5056054;28;20044;-72
2023/08/20 12:07:28;;;;;;;1.23;0.40;;;22.10;99.90;;;;;;5074109;28;20078;-72
2023/08/20 12:09:55;;;;;;;5.60;0.45;;;22.20;99.90;;;;;;5071713;28;20040;-73
2023/08/20 12:12:21;;;;;;;0.52;0.30;;;22.20;99.90;;;;;;5072239;28;20059;-73
2023/08/20 12:14:47;;;;;;;0.93;0.30;;;22.20;99.90;;;;;;5078816;28;20066;-73
2023/08/20 12:17:16;;;;;;;3.10;0.30;;;22.20;99.90;;;;;;5076008;28;20463;-72
2023/08/20 12:19:42;;;;;;;1.75;0.28;;;22.10;99.90;;;;;;5075199;28;20044;-72
2023/08/20 12:22:08;;;;;;;1.27;0.52;;;22.20;99.90;;;;;;5073458;28;20036;-73
2023/08/20 12:24:34;;;;;;;1.75;0.40;;;22.20;99.90;;;;;;5072568;28;20050;-73
2023/08/20 12:26:59;;;;;;;2.88;0.57;;;22.30;99.90;;;;;;5075829;28;20059;-72
2023/08/20 12:29:25;;;;;;;2.67;0.30;;;22.30;99.90;;;;;;5079325;28;20143;-72
2023/08/20 12:31:51;;;;;;;0.85;0.47;;;22.40;99.90;;;;;;5076539;28;20039;-73
2023/08/20 12:34:17;;;;;;;1.50;0.38;;;22.30;99.90;;;;;;5073757;28;20425;-73
2023/08/20 12:36:43;;;;;;;1.92;0.30;;;22.30;99.90;;;;;;5070092;28;20430;-73
2023/08/20 12:39:09;;;;;;;1.20;0.40;;;22.30;99.90;;;;;;5103979;27;20048;-73
2023/08/20 12:41:38;;;;;;;2.05;0.32;;;22.30;99.90;;;;;;5069318;28;20039;-73
2023/08/20 12:44:04;;;;;;;1.95;0.40;;;22.30;99.90;;;;;;5055213;28;20177;-73